createdAt,value
2017-08-27T00:00:11.861Z,20.50
2017-08-27T00:02:40.051Z,20.40
2017-08-27T00:05:08.176Z,20.40
2017-08-27T00:07:36.304Z,20.30
2017-08-27T00:10:04.466Z,20.30
2017-08-27T00:12:32.603Z,20.30
2017-08-27T00:15:00.780Z,20.20
2017-08-27T00:17:28.910Z,20.20
2017-08-27T00:19:57.048Z,20.20
2017-08-27T00:22:25.213Z,20.10
2017-08-27T00:24:53.337Z,20.20
2017-08-27T00:27:21.507Z,20.10
2017-08-27T00:29:49.652Z,20.10
2017-08-27T00:32:17.939Z,20.10
2017-08-27T00:34:46.068Z,20.10
2017-08-27T00:37:14.195Z,20.10
2017-08-27T00:39:42.368Z,20.10
2017-08-27T00:42:11.261Z,20.10
2017-08-27T00:44:39.417Z,20.10
2017-08-27T00:47:07.549Z,20.20
2017-08-27T00:49:35.722Z,20.20
2017-08-27T00:52:03.845Z,20.20
2017-08-27T00:54:31.968Z,20.20
2017-08-27T00:57:00.139Z,20.20
2017-08-27T00:59:28.278Z,20.20
2017-08-27T01:01:56.469Z,20.20
2017-08-27T01:04:24.592Z,20.20
2017-08-27T01:06:52.727Z,20.20
2017-08-27T01:09:20.882Z,20.20
2017-08-27T01:11:49.023Z,20.20
2017-08-27T01:14:17.190Z,20.20
2017-08-27T01:16:45.308Z,20.10
2017-08-27T01:19:13.474Z,20.20
2017-08-27T01:21:41.623Z,20.20
2017-08-27T01:24:09.752Z,20.20
2017-08-27T01:26:38.001Z,20.20
2017-08-27T01:29:06.130Z,20.20
2017-08-27T01:31:34.303Z,20.20
2017-08-27T01:34:02.436Z,20.20
2017-08-27T01:36:30.602Z,20.10
2017-08-27T01:38:58.736Z,20.10
2017-08-27T01:41:26.890Z,20.10
2017-08-27T01:43:55.017Z,20.00
2017-08-27T01:46:23.187Z,20.00
2017-08-27T01:48:51.309Z,20.00
2017-08-27T01:51:19.561Z,19.90
2017-08-27T01:53:47.694Z,19.90
2017-08-27T01:56:15.820Z,19.90
2017-08-27T01:58:43.987Z,19.90
2017-08-27T02:01:12.134Z,19.80
2017-08-27T02:03:40.308Z,19.80
2017-08-27T02:06:08.439Z,19.80
2017-08-27T02:08:36.609Z,19.80
2017-08-27T02:11:04.729Z,19.70
2017-08-27T02:13:32.860Z,19.70
2017-08-27T02:16:01.009Z,19.70
2017-08-27T02:18:29.152Z,19.60
2017-08-27T02:20:57.281Z,19.60
2017-08-27T02:23:25.460Z,19.50
2017-08-27T02:25:53.597Z,19.60
2017-08-27T02:28:21.777Z,19.50
2017-08-27T02:30:49.944Z,19.50
2017-08-27T02:33:18.070Z,19.40
2017-08-27T02:35:46.435Z,19.40
2017-08-27T02:38:14.569Z,19.40
2017-08-27T02:40:42.693Z,19.30
2017-08-27T02:43:10.866Z,19.20
2017-08-27T02:45:39.015Z,19.20
2017-08-27T02:48:07.194Z,19.10
2017-08-27T02:50:35.321Z,19.10
2017-08-27T02:53:03.460Z,19.00
2017-08-27T02:55:31.631Z,19.00
2017-08-27T02:57:59.768Z,18.90
2017-08-27T03:00:27.950Z,18.90
2017-08-27T03:02:56.070Z,18.80
2017-08-27T03:05:24.189Z,18.80
2017-08-27T03:07:52.346Z,18.70
2017-08-27T03:10:20.495Z,18.70
2017-08-27T03:12:48.650Z,18.70
2017-08-27T03:15:16.816Z,18.60
2017-08-27T03:17:44.969Z,18.60
2017-08-27T03:20:13.098Z,18.50
2017-08-27T03:22:41.260Z,18.50
2017-08-27T03:25:09.400Z,18.40
2017-08-27T03:27:37.526Z,18.40
2017-08-27T03:30:05.695Z,18.40
2017-08-27T03:32:33.830Z,18.30
2017-08-27T03:35:01.990Z,18.30
2017-08-27T03:37:30.113Z,18.30
2017-08-27T03:39:58.241Z,18.20
2017-08-27T03:42:26.402Z,18.20
2017-08-27T03:44:54.527Z,18.20
2017-08-27T03:47:22.658Z,18.10
2017-08-27T03:49:50.837Z,18.10
2017-08-27T03:52:18.978Z,18.10
2017-08-27T03:54:47.100Z,18.10
2017-08-27T03:57:15.259Z,18.10
2017-08-27T03:59:43.377Z,18.00
2017-08-27T04:02:11.554Z,18.00
2017-08-27T04:04:39.678Z,18.00
2017-08-27T04:07:07.853Z,18.00
2017-08-27T04:09:35.997Z,17.90
2017-08-27T04:12:04.125Z,17.90
2017-08-27T04:14:32.299Z,17.90
2017-08-27T04:17:00.424Z,17.90
2017-08-27T04:19:28.552Z,17.80
2017-08-27T04:21:56.718Z,17.80
2017-08-27T04:24:24.874Z,17.80
2017-08-27T04:26:53.148Z,17.80
2017-08-27T04:29:21.278Z,17.80
2017-08-27T04:31:49.420Z,17.70
2017-08-27T04:34:17.587Z,17.70
2017-08-27T04:36:45.717Z,17.70
2017-08-27T04:39:13.899Z,17.70
2017-08-27T04:41:42.026Z,17.70
2017-08-27T04:44:10.148Z,17.70
2017-08-27T04:46:38.311Z,17.70
2017-08-27T04:49:06.458Z,17.70
2017-08-27T04:51:34.602Z,17.50
2017-08-27T04:54:02.767Z,17.70
2017-08-27T04:56:30.881Z,17.80
2017-08-27T04:58:59.005Z,17.80
2017-08-27T05:01:27.170Z,17.80
2017-08-27T05:03:55.293Z,17.90
2017-08-27T05:06:23.471Z,17.90
2017-08-27T05:08:51.613Z,18.00
2017-08-27T05:11:20.094Z,18.10
2017-08-27T05:13:48.221Z,18.20
2017-08-27T05:16:16.355Z,18.30
2017-08-27T05:18:44.534Z,18.40
2017-08-27T05:21:12.675Z,18.40
2017-08-27T05:23:40.863Z,18.50
2017-08-27T05:26:08.989Z,18.60
2017-08-27T05:28:37.108Z,18.70
2017-08-27T05:31:05.253Z,18.70
2017-08-27T05:33:33.373Z,18.80
2017-08-27T05:36:01.521Z,18.90
2017-08-27T05:38:29.658Z,19.00
2017-08-27T05:40:57.818Z,19.10
2017-08-27T05:43:25.938Z,19.30
2017-08-27T05:45:54.099Z,19.40
2017-08-27T05:48:22.223Z,19.60
2017-08-27T05:50:50.357Z,19.70
2017-08-27T05:53:18.521Z,19.90
2017-08-27T05:55:46.640Z,20.10
2017-08-27T05:58:14.850Z,20.20
2017-08-27T06:00:43.015Z,20.40
2017-08-27T06:03:11.150Z,20.50
2017-08-27T06:05:39.306Z,20.60
2017-08-27T06:08:07.434Z,20.60
2017-08-27T06:10:36.590Z,20.60
2017-08-27T06:13:04.751Z,20.70
2017-08-27T06:15:32.888Z,20.80
2017-08-27T06:18:01.238Z,20.90
2017-08-27T06:20:29.369Z,21.10
2017-08-27T06:22:57.513Z,21.30
2017-08-27T06:25:25.686Z,21.50
2017-08-27T06:27:53.828Z,21.70
2017-08-27T06:30:21.966Z,21.80
2017-08-27T06:32:50.130Z,22.10
2017-08-27T06:35:18.257Z,22.30
2017-08-27T06:37:46.456Z,22.40
2017-08-27T06:40:14.581Z,22.60
2017-08-27T06:42:42.719Z,22.90
2017-08-27T06:45:10.938Z,23.10
2017-08-27T06:47:39.075Z,23.30
2017-08-27T06:50:07.236Z,23.40
2017-08-27T06:52:35.365Z,23.50
2017-08-27T06:55:03.624Z,23.50
2017-08-27T06:57:31.759Z,23.60
2017-08-27T06:59:59.903Z,23.60
2017-08-27T07:02:28.079Z,23.60
2017-08-27T07:04:56.228Z,23.70
2017-08-27T07:07:24.367Z,23.70
2017-08-27T07:09:52.662Z,23.70
2017-08-27T07:12:20.806Z,23.60
2017-08-27T07:14:48.949Z,23.60
2017-08-27T07:17:17.114Z,23.40
2017-08-27T07:19:45.269Z,23.40
2017-08-27T07:22:13.421Z,23.30
2017-08-27T07:24:41.589Z,23.20
2017-08-27T07:27:09.756Z,23.10
2017-08-27T07:29:37.885Z,23.00
2017-08-27T07:32:06.076Z,23.00
2017-08-27T07:34:34.294Z,23.10
2017-08-27T07:37:02.429Z,23.10
2017-08-27T07:39:30.613Z,23.10
2017-08-27T07:41:58.752Z,23.10
2017-08-27T07:44:26.924Z,23.10
2017-08-27T07:49:29.472Z,23.00
2017-08-27T07:51:57.605Z,23.00
2017-08-27T07:54:25.752Z,23.10
2017-08-27T07:56:53.939Z,23.10
2017-08-27T07:59:22.066Z,23.10
2017-08-27T08:01:50.208Z,23.10
2017-08-27T08:04:18.381Z,23.10
2017-08-27T08:06:46.519Z,23.10
2017-08-27T08:09:14.688Z,23.10
2017-08-27T08:11:43.009Z,23.10
2017-08-27T08:14:11.188Z,23.20
2017-08-27T08:16:39.319Z,23.40
2017-08-27T08:19:07.493Z,23.60
2017-08-27T08:21:35.639Z,23.90
2017-08-27T08:24:03.783Z,24.30
2017-08-27T08:26:31.941Z,24.70
2017-08-27T08:29:00.076Z,24.90
2017-08-27T08:31:28.213Z,25.20
2017-08-27T08:33:56.387Z,25.40
2017-08-27T08:36:24.534Z,25.70
2017-08-27T08:38:52.809Z,25.90
2017-08-27T08:41:20.964Z,26.10
2017-08-27T08:43:49.118Z,26.30
2017-08-27T08:46:17.295Z,26.60
2017-08-27T08:48:45.417Z,26.90
2017-08-27T08:51:13.556Z,27.20
2017-08-27T08:53:41.817Z,27.40
2017-08-27T08:56:09.943Z,27.60
2017-08-27T08:58:38.083Z,27.70
2017-08-27T09:01:06.252Z,27.90
2017-08-27T09:03:34.388Z,27.90
2017-08-27T09:06:02.553Z,27.90
2017-08-27T09:08:30.754Z,28.10
2017-08-27T09:10:58.881Z,28.20
2017-08-27T09:13:27.039Z,28.40
2017-08-27T09:15:55.214Z,28.70
2017-08-27T09:18:23.355Z,28.90
2017-08-27T09:20:51.495Z,29.00
2017-08-27T09:23:19.703Z,29.20
2017-08-27T09:25:47.852Z,29.40
2017-08-27T09:28:16.023Z,29.50
2017-08-27T09:30:44.202Z,29.50
2017-08-27T09:33:12.350Z,29.60
2017-08-27T09:35:40.528Z,29.50
2017-08-27T09:38:08.672Z,29.20
2017-08-27T09:40:36.839Z,28.90
2017-08-27T09:43:04.982Z,28.60
2017-08-27T09:45:33.137Z,28.30
2017-08-27T09:48:01.311Z,28.00
2017-08-27T09:50:29.463Z,27.80
2017-08-27T09:52:57.629Z,27.60
2017-08-27T09:55:25.777Z,27.50
2017-08-27T09:57:53.947Z,27.60
2017-08-27T10:00:22.126Z,27.70
2017-08-27T10:02:50.271Z,27.90
2017-08-27T10:05:18.439Z,28.10
2017-08-27T10:07:46.563Z,28.40
2017-08-27T10:10:14.704Z,28.70
2017-08-27T10:12:42.880Z,28.90
2017-08-27T10:15:11.025Z,29.10
2017-08-27T10:17:39.201Z,29.30
2017-08-27T10:20:07.339Z,29.50
2017-08-27T10:22:35.523Z,29.60
2017-08-27T10:25:03.690Z,29.80
2017-08-27T10:27:31.818Z,29.90
2017-08-27T10:29:59.959Z,30.00
2017-08-27T10:32:28.141Z,30.20
2017-08-27T10:34:56.277Z,30.30
2017-08-27T10:37:24.415Z,30.40
2017-08-27T10:39:52.602Z,30.50
2017-08-27T10:42:20.750Z,30.70
2017-08-27T10:44:49.028Z,30.70
2017-08-27T10:47:17.175Z,30.70
2017-08-27T10:49:45.318Z,30.70
2017-08-27T10:52:13.498Z,30.70
2017-08-27T10:54:41.685Z,30.70
2017-08-27T10:57:09.866Z,30.60
2017-08-27T10:59:38.004Z,30.60
2017-08-27T11:02:06.359Z,30.40
2017-08-27T11:04:34.535Z,30.30
2017-08-27T11:07:02.672Z,30.20
2017-08-27T11:09:30.843Z,30.00
2017-08-27T11:11:58.969Z,29.90
2017-08-27T11:14:27.108Z,29.80
2017-08-27T11:16:55.283Z,29.70
2017-08-27T11:19:23.433Z,29.60
2017-08-27T11:21:51.604Z,29.40
2017-08-27T11:26:52.463Z,29.20
2017-08-27T11:29:20.600Z,29.10
2017-08-27T11:31:48.770Z,28.90
2017-08-27T11:34:16.915Z,28.80
2017-08-27T11:36:45.046Z,28.70
2017-08-27T11:39:13.222Z,28.60
2017-08-27T11:41:41.357Z,28.60
2017-08-27T11:44:09.492Z,28.70
2017-08-27T11:46:37.752Z,28.70
2017-08-27T11:49:05.904Z,28.60
2017-08-27T11:51:34.052Z,28.60
2017-08-27T11:54:02.232Z,28.60
2017-08-27T11:56:30.365Z,28.60
2017-08-27T11:58:58.580Z,28.50
2017-08-27T12:01:26.750Z,28.50
2017-08-27T12:03:54.890Z,28.50
2017-08-27T12:06:23.026Z,28.50
2017-08-27T12:08:51.208Z,28.50
2017-08-27T12:11:19.340Z,28.50
2017-08-27T12:13:47.490Z,28.40
2017-08-27T12:16:15.686Z,28.40
2017-08-27T12:18:43.809Z,28.50
2017-08-27T12:21:11.937Z,28.50
2017-08-27T12:23:40.098Z,28.40
2017-08-27T12:26:08.263Z,28.50
2017-08-27T12:28:36.441Z,28.50
2017-08-27T12:31:04.627Z,28.40
2017-08-27T12:33:32.818Z,28.30
2017-08-27T12:36:00.946Z,28.30
2017-08-27T12:38:29.119Z,28.20
2017-08-27T12:40:57.294Z,28.10
2017-08-27T12:43:25.452Z,28.10
2017-08-27T12:45:53.620Z,28.00
2017-08-27T12:48:21.763Z,27.90
2017-08-27T12:50:49.941Z,27.80
2017-08-27T12:53:18.075Z,27.70
2017-08-27T12:55:46.240Z,27.50
2017-08-27T12:58:14.381Z,27.40
2017-08-27T13:00:42.541Z,27.30
2017-08-27T13:03:10.721Z,27.20
2017-08-27T13:05:38.873Z,27.10
2017-08-27T13:08:07.043Z,27.00
2017-08-27T13:10:35.181Z,27.00
2017-08-27T13:13:03.342Z,27.00
2017-08-27T13:15:31.483Z,27.00
2017-08-27T13:17:59.641Z,27.00
2017-08-27T13:20:27.787Z,27.00
2017-08-27T13:22:55.976Z,27.00
2017-08-27T13:25:24.120Z,26.90
2017-08-27T13:27:52.290Z,26.70
2017-08-27T13:30:20.533Z,26.70
2017-08-27T13:32:48.735Z,26.50
2017-08-27T13:35:16.882Z,26.40
2017-08-27T13:37:45.055Z,26.30
2017-08-27T13:40:13.195Z,26.10
2017-08-27T13:42:51.360Z,26.10
2017-08-27T13:45:19.513Z,26.00
2017-08-27T13:47:47.671Z,25.80
2017-08-27T13:50:15.798Z,25.70
2017-08-27T13:52:43.962Z,25.60
2017-08-27T13:55:12.104Z,25.50
2017-08-27T13:57:40.297Z,25.40
2017-08-27T14:00:08.442Z,25.30
2017-08-27T14:02:36.607Z,25.30
2017-08-27T14:05:04.745Z,25.20
2017-08-27T14:07:32.914Z,25.20
2017-08-27T14:10:01.059Z,25.30
2017-08-27T14:12:29.189Z,25.20
2017-08-27T14:14:57.358Z,25.20
2017-08-27T14:17:25.489Z,25.20
2017-08-27T14:19:53.655Z,25.20
2017-08-27T14:22:21.796Z,25.20
2017-08-27T14:24:49.953Z,25.20
2017-08-27T14:27:18.090Z,25.20
2017-08-27T14:29:46.267Z,25.10
2017-08-27T14:32:14.412Z,25.10
2017-08-27T14:34:42.640Z,25.00
2017-08-27T14:37:10.757Z,25.00
2017-08-27T14:39:38.942Z,24.90
2017-08-27T14:42:07.082Z,24.90
2017-08-27T14:44:35.258Z,24.80
2017-08-27T14:47:03.389Z,24.80
2017-08-27T14:49:31.563Z,24.80
2017-08-27T14:51:59.695Z,24.70
2017-08-27T14:54:27.883Z,24.70
2017-08-27T14:56:56.010Z,24.70
2017-08-27T14:59:24.178Z,24.60
2017-08-27T15:01:52.313Z,24.50
2017-08-27T15:04:20.487Z,24.50
2017-08-27T15:06:48.693Z,24.40
2017-08-27T15:09:16.854Z,24.30
2017-08-27T15:11:44.979Z,24.30
2017-08-27T15:14:13.137Z,24.20
2017-08-27T15:16:41.270Z,24.20
2017-08-27T15:19:09.499Z,24.20
2017-08-27T15:21:37.642Z,24.10
2017-08-27T15:24:05.916Z,24.10
2017-08-27T15:26:34.045Z,24.00
2017-08-27T15:29:02.186Z,24.00
2017-08-27T15:31:30.359Z,23.90
2017-08-27T15:33:58.504Z,23.90
2017-08-27T15:36:26.677Z,23.90
2017-08-27T15:38:54.815Z,23.90
2017-08-27T15:41:22.984Z,23.80
2017-08-27T15:43:51.139Z,23.80
2017-08-27T15:46:19.272Z,23.80
2017-08-27T15:48:47.441Z,23.70
2017-08-27T15:51:15.576Z,23.70
2017-08-27T15:53:43.751Z,23.70
2017-08-27T15:56:11.931Z,23.70
2017-08-27T15:58:40.097Z,23.60
2017-08-27T16:01:08.271Z,23.60
2017-08-27T16:03:36.396Z,23.60
2017-08-27T16:06:04.614Z,23.60
2017-08-27T16:08:32.762Z,23.50
2017-08-27T16:11:00.907Z,23.50
2017-08-27T16:13:29.085Z,23.50
2017-08-27T16:15:57.222Z,23.40
2017-08-27T16:18:25.431Z,23.40
2017-08-27T16:20:53.568Z,23.40
2017-08-27T16:23:21.740Z,23.40
2017-08-27T16:25:49.880Z,23.40
2017-08-27T16:28:18.070Z,23.30
2017-08-27T16:30:46.387Z,23.30
2017-08-27T16:33:14.531Z,23.30
2017-08-27T16:35:42.700Z,23.30
2017-08-27T16:38:10.817Z,23.20
2017-08-27T16:40:39.014Z,23.20
2017-08-27T16:43:07.175Z,23.10
2017-08-27T16:45:35.341Z,23.10
2017-08-27T16:48:03.462Z,23.00
2017-08-27T16:50:31.620Z,23.00
2017-08-27T16:52:59.762Z,23.00
2017-08-27T16:55:27.917Z,23.00
2017-08-27T16:57:56.059Z,22.90
2017-08-27T17:00:24.245Z,22.90
2017-08-27T17:02:52.384Z,22.90
2017-08-27T17:05:20.535Z,22.90
2017-08-27T17:07:48.709Z,22.80
2017-08-27T17:10:16.857Z,22.80
2017-08-27T17:12:45.095Z,22.80
2017-08-27T17:15:13.241Z,22.80
2017-08-27T17:17:41.409Z,22.80
2017-08-27T17:20:09.547Z,22.80
2017-08-27T17:22:37.714Z,22.70
2017-08-27T17:25:05.851Z,22.70
2017-08-27T17:27:34.023Z,22.70
2017-08-27T17:30:02.153Z,22.70
2017-08-27T17:32:30.321Z,22.60
2017-08-27T17:34:58.447Z,22.60
2017-08-27T17:37:26.618Z,22.60
2017-08-27T17:39:54.764Z,22.60
2017-08-27T17:42:22.958Z,22.60
2017-08-27T17:44:51.117Z,22.60
2017-08-27T17:47:19.278Z,22.60
2017-08-27T17:49:47.401Z,22.50
2017-08-27T17:52:15.593Z,22.50
2017-08-27T17:54:43.937Z,22.50
2017-08-27T17:57:12.114Z,22.50
2017-08-27T17:59:40.277Z,22.50
2017-08-27T18:02:08.463Z,22.40
2017-08-27T18:04:36.617Z,22.40
2017-08-27T18:07:04.789Z,22.40
2017-08-27T18:09:32.948Z,22.30
2017-08-27T18:12:01.119Z,22.30
2017-08-27T18:14:29.355Z,22.20
2017-08-27T18:16:57.573Z,22.20
2017-08-27T18:19:25.713Z,22.10
2017-08-27T18:21:53.871Z,22.00
2017-08-27T18:24:22.022Z,21.90
2017-08-27T18:26:50.187Z,21.90
2017-08-27T18:29:18.367Z,21.80
2017-08-27T18:31:46.641Z,21.70
2017-08-27T18:34:14.783Z,21.70
2017-08-27T18:36:42.917Z,21.60
2017-08-27T18:39:11.158Z,21.60
2017-08-27T18:41:39.300Z,21.50
2017-08-27T18:44:07.472Z,21.40
2017-08-27T18:46:35.623Z,21.40
2017-08-27T18:49:03.826Z,21.40
2017-08-27T18:51:32.068Z,21.30
2017-08-27T18:54:00.365Z,21.20
2017-08-27T18:56:28.630Z,21.20
2017-08-27T18:58:56.853Z,21.10
2017-08-27T19:01:24.979Z,21.10
2017-08-27T19:03:59.173Z,21.10
2017-08-27T19:06:27.386Z,21.00
2017-08-27T19:08:55.605Z,21.00
2017-08-27T19:11:23.828Z,21.00
2017-08-27T19:13:52.135Z,21.00
2017-08-27T19:16:20.312Z,20.90
2017-08-27T19:18:48.564Z,21.00
2017-08-27T19:21:16.918Z,20.90
2017-08-27T19:23:45.135Z,20.90
2017-08-27T19:26:13.339Z,20.90
2017-08-27T19:28:41.556Z,20.90
2017-08-27T19:31:09.969Z,20.90
2017-08-27T19:33:38.695Z,20.80
2017-08-27T19:36:07.220Z,20.80
2017-08-27T19:38:35.625Z,20.70
2017-08-27T19:41:04.184Z,20.70
2017-08-27T19:43:33.673Z,20.70
2017-08-27T19:46:02.216Z,20.70
2017-08-27T19:48:30.782Z,20.60
2017-08-27T19:50:59.347Z,20.60
2017-08-27T19:53:27.808Z,20.60
2017-08-27T19:55:56.169Z,20.50
2017-08-27T19:58:24.406Z,20.50
2017-08-27T20:00:52.747Z,20.50
2017-08-27T20:03:21.264Z,20.50
2017-08-27T20:05:49.860Z,20.50
2017-08-27T20:08:18.544Z,20.40
2017-08-27T20:10:47.193Z,20.40
2017-08-27T20:13:16.141Z,20.40
2017-08-27T20:15:44.826Z,20.40
2017-08-27T20:18:13.187Z,20.40
2017-08-27T20:20:41.516Z,20.40
2017-08-27T20:23:09.963Z,20.30
2017-08-27T20:25:38.553Z,20.30
2017-08-27T20:28:06.863Z,20.30
2017-08-27T20:30:35.247Z,20.30
2017-08-27T20:33:03.543Z,20.20
2017-08-27T20:35:31.731Z,20.20
2017-08-27T20:37:59.917Z,20.20
2017-08-27T20:40:28.089Z,20.20
2017-08-27T20:42:56.236Z,20.20
2017-08-27T20:45:24.398Z,20.20
2017-08-27T20:47:52.536Z,20.10
2017-08-27T20:50:20.757Z,20.10
2017-08-27T20:52:48.886Z,20.10
2017-08-27T20:55:17.034Z,20.10
2017-08-27T20:57:45.162Z,20.00
2017-08-27T21:00:13.339Z,20.00
2017-08-27T21:02:41.465Z,20.00
2017-08-27T21:05:09.636Z,19.90
2017-08-27T21:07:37.786Z,19.90
2017-08-27T21:10:05.947Z,19.90
2017-08-27T21:12:34.086Z,19.80
2017-08-27T21:15:02.262Z,19.80
2017-08-27T21:17:30.381Z,19.80
2017-08-27T21:19:58.543Z,19.70
2017-08-27T21:22:26.679Z,19.70
2017-08-27T21:24:54.841Z,19.60
2017-08-27T21:27:22.971Z,19.60
2017-08-27T21:29:51.148Z,19.60
2017-08-27T21:32:19.289Z,19.50
2017-08-27T21:34:47.455Z,19.50
2017-08-27T21:37:15.602Z,19.50
2017-08-27T21:39:43.780Z,19.50
2017-08-27T21:42:12.246Z,19.40
2017-08-27T21:44:40.375Z,19.40
2017-08-27T21:47:08.529Z,19.40
2017-08-27T21:49:36.662Z,19.40
2017-08-27T21:52:04.851Z,19.40
2017-08-27T21:54:32.981Z,19.30
2017-08-27T21:57:01.150Z,19.30
2017-08-27T21:59:29.422Z,19.30
2017-08-27T22:01:58.623Z,19.30
2017-08-27T22:04:26.765Z,19.30
2017-08-27T22:06:54.982Z,19.30
2017-08-27T22:09:23.126Z,19.30
2017-08-27T22:11:51.302Z,19.20
2017-08-27T22:14:19.441Z,19.20
2017-08-27T22:16:47.614Z,19.20
2017-08-27T22:19:15.792Z,19.20
2017-08-27T22:21:43.953Z,19.20
2017-08-27T22:24:12.088Z,19.20
2017-08-27T22:26:40.246Z,19.20
2017-08-27T22:29:08.387Z,19.10
2017-08-27T22:31:36.569Z,19.10
2017-08-27T22:34:04.696Z,19.10
2017-08-27T22:36:32.857Z,19.10
2017-08-27T22:39:00.985Z,19.10
2017-08-27T22:41:29.150Z,19.10
2017-08-27T22:43:57.296Z,19.10
2017-08-27T22:46:25.463Z,19.10
2017-08-27T22:48:53.677Z,19.00
2017-08-27T22:51:22.073Z,19.00
2017-08-27T22:53:50.207Z,19.00
2017-08-27T22:56:18.371Z,19.00
2017-08-27T22:58:46.513Z,19.00
2017-08-27T23:01:14.687Z,19.00
2017-08-27T23:03:42.827Z,19.00
2017-08-27T23:06:10.998Z,19.00
2017-08-27T23:08:39.138Z,19.00
2017-08-27T23:11:07.425Z,18.90
2017-08-27T23:13:35.564Z,18.90
2017-08-27T23:16:03.709Z,18.90
2017-08-27T23:18:31.865Z,18.90
2017-08-27T23:20:59.999Z,18.90
2017-08-27T23:23:28.172Z,18.90
2017-08-27T23:25:56.314Z,18.90
2017-08-27T23:28:24.520Z,18.90
2017-08-27T23:30:52.656Z,18.90
2017-08-27T23:33:20.820Z,18.90
2017-08-27T23:35:48.953Z,18.90
2017-08-27T23:38:17.131Z,18.90
2017-08-27T23:40:45.265Z,18.80
2017-08-27T23:43:13.437Z,18.80
2017-08-27T23:45:41.576Z,18.80
2017-08-27T23:48:09.701Z,18.80
2017-08-27T23:50:37.868Z,18.80
2017-08-27T23:53:05.994Z,18.80
2017-08-27T23:55:34.168Z,18.80
2017-08-27T23:58:02.305Z,18.80
